Time;durP1;ratioP1;P1;durP2;ratioP2;P2;SDS_P1;SDS_P2;PMS_P1;PMS_P2;Temp;Humidity;BMP_temperature;BMP_pressure;BME280_temperature;BME280_humidity;BME280_pressure;Samples;Min_cycle;Max_cycle;Signal;HPM_P1;HPM_P2
2024/03/15 00:01:47;;;;;;;20.10;8.17;;;;;;;;;;6176597;23;20171;-88
2024/03/15 00:04:52;;;;;;;19.10;7.90;;;;;;;;;;6160026;23;20188;-88
2024/03/15 00:08:02;;;;;;;22.70;8.23;;;;;;;;;;6176800;23;20243;-90
2024/03/15 00:11:07;;;;;;;17.80;8.10;;;;;;;;;;6176206;23;20210;-87
2024/03/15 00:14:12;;;;;;;17.83;8.40;;;;;;;;;;6175449;23;20501;-87
2024/03/15 00:17:18;;;;;;;17.23;8.20;;;;;;;;;;6158836;23;20171;-88
2024/03/15 00:20:24;;;;;;;20.57;7.90;;;;;;;;;;6176014;23;20171;-88
2024/03/15 00:23:29;;;;;;;19.20;8.40;;;;;;;;;;6175078;23;20164;-87
2024/03/15 00:26:36;;;;;;;18.17;8.63;;;;;;;;;;6175140;23;20176;-88
2024/03/15 00:29:42;;;;;;;19.20;8.40;;;;;;;;;;6175088;23;20214;-87
2024/03/15 00:32:47;;;;;;;19.30;8.40;;;;;;;;;;6175808;23;20521;-87
2024/03/15 00:35:52;;;;;;;21.00;8.93;;;;;;;;;;6176481;23;20167;-88
2024/03/15 00:38:58;;;;;;;17.50;8.27;;;;;;;;;;6175702;23;20507;-88
2024/03/15 00:42:03;;;;;;;17.80;7.77;;;;;;;;;;6176164;23;20168;-89
2024/03/15 00:45:10;;;;;;;15.97;7.73;;;;;;;;;;6177967;23;20175;-89
2024/03/15 00:48:15;;;;;;;15.97;7.27;;;;;;;;;;6176774;23;20171;-87
2024/03/15 00:51:20;;;;;;;19.97;7.90;;;;;;;;;;6177252;23;20506;-89
2024/03/15 00:54:27;;;;;;;16.57;8.03;;;;;;;;;;6175207;23;20195;-88
2024/03/15 00:57:32;;;;;;;18.63;8.43;;;;;;;;;;6175376;23;20168;-88
2024/03/15 01:00:37;;;;;;;14.67;6.93;;;;;;;;;;6175821;23;20175;-88
2024/03/15 01:03:42;;;;;;;16.93;7.63;;;;;;;;;;6174272;23;20208;-88
2024/03/15 01:06:47;;;;;;;19.50;7.93;;;;;;;;;;6175375;23;20175;-89
2024/03/15 01:09:52;;;;;;;15.70;6.77;;;;;;;;;;6175305;23;20291;-89
2024/03/15 01:13:03;;;;;;;13.80;6.97;;;;;;;;;;6176214;23;20195;-88
2024/03/15 01:16:09;;;;;;;16.17;7.57;;;;;;;;;;6175631;23;20218;-87
2024/03/15 01:19:14;;;;;;;15.97;7.93;;;;;;;;;;6174821;23;20172;-88
2024/03/15 01:22:21;;;;;;;17.63;7.53;;;;;;;;;;6178312;23;20172;-89
2024/03/15 01:25:26;;;;;;;19.37;7.40;;;;;;;;;;6175665;23;20168;-88
2024/03/15 01:28:31;;;;;;;17.87;7.53;;;;;;;;;;6174767;23;20194;-89
2024/03/15 01:31:36;;;;;;;17.47;7.60;;;;;;;;;;6175559;23;20176;-89
2024/03/15 01:34:41;;;;;;;16.47;7.27;;;;;;;;;;6174449;23;20163;-87
2024/03/15 01:37:46;;;;;;;18.83;7.70;;;;;;;;;;6175923;23;20171;-88
2024/03/15 01:40:51;;;;;;;16.70;7.47;;;;;;;;;;6175750;23;20167;-89
2024/03/15 01:43:57;;;;;;;15.30;6.83;;;;;;;;;;6176140;23;20171;-88
2024/03/15 01:47:02;;;;;;;15.70;7.73;;;;;;;;;;6176793;23;20504;-88
2024/03/15 01:50:08;;;;;;;21.70;8.27;;;;;;;;;;6175258;23;20172;-89
2024/03/15 01:53:13;;;;;;;18.33;7.90;;;;;;;;;;6175017;23;20195;-88
2024/03/15 01:56:20;;;;;;;18.10;7.90;;;;;;;;;;6175373;23;20624;-90
2024/03/15 01:59:25;;;;;;;18.87;7.67;;;;;;;;;;6175384;23;20168;-87
2024/03/15 02:02:32;;;;;;;19.27;8.13;;;;;;;;;;6176241;23;20168;-89
2024/03/15 02:05:40;;;;;;;17.90;8.53;;;;;;;;;;6175415;23;20180;-88
2024/03/15 02:08:45;;;;;;;19.30;8.03;;;;;;;;;;6174563;23;20179;-88
2024/03/15 02:11:51;;;;;;;20.70;9.13;;;;;;;;;;6175382;23;20251;-89
2024/03/15 02:14:56;;;;;;;24.70;9.73;;;;;;;;;;6175149;23;20171;-87
2024/03/15 02:18:01;;;;;;;19.53;8.70;;;;;;;;;;6176181;23;20168;-87
2024/03/15 02:21:06;;;;;;;19.67;8.37;;;;;;;;;;6175469;23;20172;-88
2024/03/15 02:24:11;;;;;;;19.93;8.83;;;;;;;;;;6175358;23;20171;-86
2024/03/15 02:27:17;;;;;;;21.97;8.70;;;;;;;;;;6175288;23;20191;-90
2024/03/15 02:30:22;;;;;;;22.30;9.70;;;;;;;;;;6175402;23;20245;-90
2024/03/15 02:33:27;;;;;;;26.03;10.30;;;;;;;;;;6177332;23;20734;-87
2024/03/15 02:36:32;;;;;;;20.87;9.67;;;;;;;;;;6178176;23;20299;-87
2024/03/15 02:39:37;;;;;;;27.17;10.80;;;;;;;;;;6175976;23;20292;-90
2024/03/15 02:42:43;;;;;;;25.57;10.43;;;;;;;;;;6194266;23;20167;-88
2024/03/15 02:45:48;;;;;;;22.03;9.40;;;;;;;;;;6176673;23;20171;-88
2024/03/15 02:48:54;;;;;;;25.17;10.67;;;;;;;;;;6175865;23;20176;-86
2024/03/15 02:51:59;;;;;;;23.60;9.93;;;;;;;;;;6180509;23;20170;-88
2024/03/15 02:55:04;;;;;;;26.33;10.07;;;;;;;;;;6179270;23;20172;-87
2024/03/15 02:58:11;;;;;;;26.23;9.40;;;;;;;;;;6178327;23;20175;-91
2024/03/15 03:01:16;;;;;;;31.47;9.87;;;;;;;;;;6177277;23;20175;-87
2024/03/15 03:04:21;;;;;;;37.77;10.27;;;;;;;;;;6178387;23;20505;-86
2024/03/15 03:07:27;;;;;;;30.10;9.70;;;;;;;;;;6176774;23;20172;-88
2024/03/15 03:10:32;;;;;;;40.47;10.17;;;;;;;;;;6179431;23;20168;-88
2024/03/15 03:13:38;;;;;;;36.50;10.67;;;;;;;;;;6178408;23;20192;-89
2024/03/15 03:16:44;;;;;;;28.13;10.17;;;;;;;;;;6179180;23;20608;-89
2024/03/15 03:19:50;;;;;;;27.30;10.50;;;;;;;;;;6176341;23;20517;-88
2024/03/15 03:22:56;;;;;;;31.83;10.97;;;;;;;;;;6177238;23;20616;-86
2024/03/15 03:26:01;;;;;;;25.17;10.33;;;;;;;;;;6177560;23;20171;-86
2024/03/15 03:29:07;;;;;;;33.43;10.50;;;;;;;;;;6176693;23;20191;-87
2024/03/15 03:32:12;;;;;;;25.57;10.30;;;;;;;;;;6177861;23;20212;-88
2024/03/15 03:35:17;;;;;;;28.13;10.70;;;;;;;;;;6179727;23;20295;-88
2024/03/15 03:38:25;;;;;;;40.07;10.83;;;;;;;;;;6180166;23;20275;-89
2024/03/15 03:41:30;;;;;;;46.20;10.70;;;;;;;;;;6176102;23;20176;-86
2024/03/15 03:44:36;;;;;;;44.40;10.87;;;;;;;;;;6173916;23;20167;-89
2024/03/15 03:47:43;;;;;;;31.27;10.87;;;;;;;;;;6175629;23;20175;-88
2024/03/15 03:50:48;;;;;;;32.93;10.57;;;;;;;;;;6175025;23;20172;-88
2024/03/15 03:53:53;;;;;;;31.37;10.17;;;;;;;;;;6174715;23;20187;-88
2024/03/15 03:56:58;;;;;;;42.77;10.27;;;;;;;;;;6175665;23;20173;-89
2024/03/15 04:00:14;;;;;;;42.47;10.43;;;;;;;;;;6175294;23;20172;-86
2024/03/15 04:03:19;;;;;;;52.57;11.47;;;;;;;;;;6175552;23;20612;-88
2024/03/15 04:06:24;;;;;;;43.53;10.57;;;;;;;;;;6175202;23;20167;-87
2024/03/15 04:09:29;;;;;;;52.97;10.40;;;;;;;;;;6174294;23;20168;-87
2024/03/15 04:12:35;;;;;;;48.07;10.23;;;;;;;;;;6174865;23;20624;-88
2024/03/15 04:15:46;;;;;;;28.67;10.00;;;;;;;;;;6173996;23;20164;-88
2024/03/15 04:18:53;;;;;;;35.30;9.70;;;;;;;;;;6175001;23;20241;-89
2024/03/15 04:21:58;;;;;;;43.87;9.60;;;;;;;;;;6174733;23;20179;-87
2024/03/15 04:25:05;;;;;;;39.03;8.90;;;;;;;;;;6173717;23;20180;-88
2024/03/15 04:28:11;;;;;;;38.37;10.33;;;;;;;;;;6174308;23;20199;-87
2024/03/15 04:31:17;;;;;;;53.43;9.50;;;;;;;;;;6174540;23;20352;-88
2024/03/15 04:34:22;;;;;;;50.27;10.30;;;;;;;;;;6176247;23;20190;-88
2024/03/15 04:37:27;;;;;;;43.13;10.87;;;;;;;;;;6176079;23;20171;-89
2024/03/15 04:40:32;;;;;;;45.30;10.20;;;;;;;;;;6174574;23;20168;-87
2024/03/15 04:43:37;;;;;;;26.70;9.30;;;;;;;;;;6192774;23;20167;-88
2024/03/15 04:46:43;;;;;;;38.73;9.10;;;;;;;;;;6175106;23;20180;-88
2024/03/15 04:49:48;;;;;;;49.50;9.30;;;;;;;;;;6174485;23;20175;-88
2024/03/15 04:52:53;;;;;;;31.33;10.33;;;;;;;;;;6175161;23;20172;-88
2024/03/15 04:55:59;;;;;;;28.97;9.90;;;;;;;;;;6176171;23;20171;-87
2024/03/15 04:59:06;;;;;;;46.87;9.57;;;;;;;;;;6178717;23;20225;-88
2024/03/15 05:02:11;;;;;;;32.87;10.03;;;;;;;;;;6178456;23;20171;-87
2024/03/15 05:05:17;;;;;;;65.40;10.20;;;;;;;;;;6174326;23;20164;-88
2024/03/15 05:08:23;;;;;;;73.10;10.77;;;;;;;;;;6172758;23;20210;-88
2024/03/15 05:11:29;;;;;;;47.83;10.20;;;;;;;;;;6192833;23;20175;-90
2024/03/15 05:14:35;;;;;;;44.73;10.97;;;;;;;;;;6176650;23;20194;-88
2024/03/15 05:17:40;;;;;;;40.13;9.77;;;;;;;;;;6175033;23;20171;-88
2024/03/15 05:20:49;;;;;;;31.27;9.10;;;;;;;;;;6173695;23;20172;-86
2024/03/15 05:23:54;;;;;;;34.20;9.90;;;;;;;;;;6175121;23;20220;-89
2024/03/15 05:26:59;;;;;;;33.67;11.93;;;;;;;;;;6174771;23;20627;-89
2024/03/15 05:30:04;;;;;;;33.90;11.77;;;;;;;;;;6174905;23;20196;-87
2024/03/15 05:33:09;;;;;;;37.50;11.13;;;;;;;;;;6176148;23;20170;-88
2024/03/15 05:36:15;;;;;;;26.83;10.37;;;;;;;;;;6176596;23;20172;-88
2024/03/15 05:39:20;;;;;;;36.13;12.03;;;;;;;;;;6175588;23;20167;-88
2024/03/15 05:42:27;;;;;;;31.13;11.03;;;;;;;;;;6176103;23;20168;-88
2024/03/15 05:45:32;;;;;;;48.50;11.93;;;;;;;;;;6175645;23;20168;-88
2024/03/15 05:48:37;;;;;;;33.83;11.23;;;;;;;;;;6174851;23;20164;-88
2024/03/15 05:51:43;;;;;;;28.73;11.60;;;;;;;;;;6194535;23;20172;-90
2024/03/15 05:54:48;;;;;;;43.73;11.20;;;;;;;;;;6176359;23;21031;-88
2024/03/15 05:57:54;;;;;;;30.00;10.87;;;;;;;;;;6176500;23;20682;-89
2024/03/15 06:00:59;;;;;;;33.43;10.73;;;;;;;;;;6178320;23;20504;-89
2024/03/15 06:04:04;;;;;;;33.03;10.73;;;;;;;;;;6177678;23;20310;-90
2024/03/15 06:07:09;;;;;;;27.50;11.37;;;;;;;;;;6177292;23;20268;-89
2024/03/15 06:10:15;;;;;;;26.23;10.50;;;;;;;;;;6196568;23;20184;-89
2024/03/15 06:13:21;;;;;;;26.77;10.73;;;;;;;;;;6177302;23;20223;-89
2024/03/15 06:16:27;;;;;;;23.27;9.67;;;;;;;;;;6178992;23;20172;-88
2024/03/15 06:19:33;;;;;;;30.67;11.38;;;;;;;;;;6180604;23;20185;-89
2024/03/15 06:22:39;;;;;;;26.50;10.23;;;;;;;;;;6177624;23;20176;-88
2024/03/15 06:25:44;;;;;;;32.27;11.37;;;;;;;;;;6176066;23;20168;-88
2024/03/15 06:28:49;;;;;;;32.17;11.50;;;;;;;;;;6178759;23;20246;-88
2024/03/15 06:31:55;;;;;;;25.63;10.30;;;;;;;;;;6175953;23;20183;-88
2024/03/15 06:35:02;;;;;;;22.35;10.07;;;;;;;;;;6178722;23;20195;-90
2024/03/15 06:38:27;;;;;;;32.97;10.37;;;;;;;;;;6176813;23;20268;-89
2024/03/15 06:41:37;;;;;;;23.73;10.30;;;;;;;;;;6176603;23;20175;-88
2024/03/15 06:44:46;;;;;;;25.67;10.20;;;;;;;;;;6178384;23;20608;-91
2024/03/15 06:48:03;;;;;;;27.27;10.27;;;;;;;;;;6174979;23;20171;-89
2024/03/15 06:54:27;;;;;;;29.40;11.60;;;;;;;;;;6177266;23;20588;-88
2024/03/15 06:57:32;;;;;;;28.77;10.47;;;;;;;;;;6177038;23;20198;-88
2024/03/15 07:00:38;;;;;;;32.87;11.67;;;;;;;;;;6177017;23;20175;-88
2024/03/15 07:03:43;;;;;;;25.43;10.77;;;;;;;;;;6195469;23;20171;-89
2024/03/15 07:06:52;;;;;;;33.33;12.18;;;;;;;;;;6182425;23;20176;-88
2024/03/15 07:09:58;;;;;;;30.43;11.57;;;;;;;;;;6179558;23;20258;-90
2024/03/15 07:13:03;;;;;;;33.22;11.82;;;;;;;;;;6177484;23;20341;-88
2024/03/15 07:16:08;;;;;;;31.40;12.10;;;;;;;;;;6178586;23;20296;-88
2024/03/15 07:19:15;;;;;;;26.07;11.53;;;;;;;;;;6176443;23;20293;-88
2024/03/15 07:22:23;;;;;;;26.27;11.02;;;;;;;;;;6179429;23;20180;-88
2024/03/15 07:25:29;;;;;;;32.90;11.30;;;;;;;;;;6195060;23;20187;-89
2024/03/15 07:28:35;;;;;;;42.90;11.63;;;;;;;;;;6178813;23;20191;-90
2024/03/15 07:31:40;;;;;;;59.17;12.23;;;;;;;;;;6177385;23;20167;-87
2024/03/15 07:34:47;;;;;;;50.88;12.65;;;;;;;;;;6177937;23;20191;-88
2024/03/15 07:37:53;;;;;;;45.60;12.57;;;;;;;;;;6181532;23;20152;-88
2024/03/15 07:40:59;;;;;;;45.38;15.63;;;;;;;;;;6177099;23;20175;-88
2024/03/15 07:44:04;;;;;;;51.58;19.00;;;;;;;;;;6194884;23;20535;-89
2024/03/15 07:47:09;;;;;;;38.13;11.68;;;;;;;;;;6184000;23;20169;-89
2024/03/15 07:50:14;;;;;;;29.67;12.20;;;;;;;;;;6184202;23;20168;-89
2024/03/15 07:53:20;;;;;;;39.95;13.57;;;;;;;;;;6165303;23;20176;-90
2024/03/15 07:56:26;;;;;;;38.38;13.43;;;;;;;;;;6181489;23;20176;-88
2024/03/15 07:59:31;;;;;;;31.02;11.93;;;;;;;;;;6178556;23;20167;-89
2024/03/15 08:02:36;;;;;;;33.08;11.10;;;;;;;;;;6179009;23;20239;-89
2024/03/15 08:05:49;;;;;;;40.33;14.63;;;;;;;;;;6193847;23;20283;-89
2024/03/15 08:08:39;;;;;;;28.38;13.35;;;;;;;;;;6173650;23;20211;-89
2024/03/15 08:11:44;;;;;;;24.90;11.63;;;;;;;;;;6159837;23;20172;-89
2024/03/15 08:14:49;;;;;;;23.65;10.43;;;;;;;;;;6160242;23;20369;-87
2024/03/15 08:17:56;;;;;;;22.63;11.45;;;;;;;;;;6159474;23;20168;-88
2024/03/15 08:21:02;;;;;;;21.95;10.38;;;;;;;;;;6159971;23;20191;-89
2024/03/15 08:24:09;;;;;;;22.73;11.38;;;;;;;;;;6160090;23;20191;-89
2024/03/15 08:27:14;;;;;;;27.77;10.32;;;;;;;;;;6161030;23;20219;-88
2024/03/15 08:30:20;;;;;;;27.60;13.02;;;;;;;;;;6160721;23;20223;-89
2024/03/15 08:33:26;;;;;;;30.00;13.18;;;;;;;;;;6169347;23;20160;-90
2024/03/15 08:36:32;;;;;;;30.27;11.20;;;;;;;;;;6164385;23;20239;-89
2024/03/15 08:39:37;;;;;;;30.77;12.02;;;;;;;;;;6161568;23;20231;-90
2024/03/15 08:42:45;;;;;;;26.25;12.18;;;;;;;;;;6162654;23;20201;-90
2024/03/15 08:45:50;;;;;;;24.27;11.80;;;;;;;;;;6162144;23;20739;-91
2024/03/15 08:48:55;;;;;;;27.95;13.23;;;;;;;;;;6158782;23;20207;-88
2024/03/15 08:52:00;;;;;;;30.23;11.93;;;;;;;;;;6161865;23;20163;-87
2024/03/15 08:55:06;;;;;;;29.98;13.13;;;;;;;;;;6163700;23;20236;-90
2024/03/15 08:58:11;;;;;;;29.65;13.18;;;;;;;;;;6161782;23;20208;-89
2024/03/15 09:01:18;;;;;;;22.77;11.20;;;;;;;;;;6160815;23;20167;-89
2024/03/15 09:04:24;;;;;;;31.30;14.20;;;;;;;;;;6161455;23;20171;-89
2024/03/15 09:07:31;;;;;;;26.70;12.20;;;;;;;;;;6160855;23;20195;-90
2024/03/15 09:10:36;;;;;;;25.02;11.35;;;;;;;;;;6161947;23;20504;-89
2024/03/15 09:13:41;;;;;;;26.60;12.27;;;;;;;;;;6161074;23;20167;-90
2024/03/15 09:16:50;;;;;;;27.05;13.45;;;;;;;;;;6160569;23;20500;-89
2024/03/15 09:19:57;;;;;;;21.73;11.18;;;;;;;;;;6161610;23;20171;-89
2024/03/15 09:23:03;;;;;;;30.40;13.88;;;;;;;;;;6158787;23;20172;-89
2024/03/15 09:26:08;;;;;;;27.70;11.20;;;;;;;;;;6160003;23;20172;-89
2024/03/15 09:29:15;;;;;;;28.33;11.95;;;;;;;;;;6161092;23;20168;-89
2024/03/15 09:32:25;;;;;;;27.08;10.65;;;;;;;;;;6178190;23;20171;-89
2024/03/15 09:35:31;;;;;;;23.20;10.57;;;;;;;;;;6164763;23;20199;-89
2024/03/15 09:38:37;;;;;;;22.33;11.75;;;;;;;;;;6159962;23;20254;-89
2024/03/15 09:41:43;;;;;;;17.92;10.32;;;;;;;;;;6163267;23;20491;-89
2024/03/15 09:44:48;;;;;;;17.02;9.45;;;;;;;;;;6158380;23;20242;-88
2024/03/15 09:47:53;;;;;;;19.42;10.15;;;;;;;;;;6161952;23;20172;-88
2024/03/15 09:51:00;;;;;;;15.73;9.80;;;;;;;;;;6160478;23;20168;-89
2024/03/15 09:54:06;;;;;;;73.20;27.50;;;;;;;;;;6160674;23;20227;-89
2024/03/15 09:57:11;;;;;;;30.33;14.00;;;;;;;;;;6161774;23;20166;-89
2024/03/15 10:00:16;;;;;;;30.73;13.80;;;;;;;;;;6159777;23;20171;-89
2024/03/15 10:03:22;;;;;;;37.05;13.77;;;;;;;;;;6161696;23;20219;-91
2024/03/15 10:06:28;;;;;;;31.00;12.95;;;;;;;;;;6159838;23;20168;-89
2024/03/15 10:09:34;;;;;;;17.65;9.40;;;;;;;;;;6160445;23;20171;-89
2024/03/15 10:12:39;;;;;;;27.83;11.20;;;;;;;;;;6162090;23;20596;-89
2024/03/15 10:15:45;;;;;;;20.27;10.38;;;;;;;;;;6160687;23;20698;-90
2024/03/15 10:18:52;;;;;;;20.02;9.57;;;;;;;;;;6162983;23;20219;-88
2024/03/15 10:22:01;;;;;;;18.67;9.70;;;;;;;;;;6161140;23;20176;-90
2024/03/15 10:25:08;;;;;;;15.95;9.15;;;;;;;;;;6161017;23;20239;-90
2024/03/15 10:28:19;;;;;;;16.65;9.80;;;;;;;;;;6160669;23;20159;-90
2024/03/15 10:31:24;;;;;;;15.60;9.18;;;;;;;;;;6161645;23;20167;-90
2024/03/15 10:34:30;;;;;;;14.88;8.82;;;;;;;;;;6162609;23;20180;-89
2024/03/15 10:37:38;;;;;;;14.48;8.90;;;;;;;;;;6162753;23;20171;-90
2024/03/15 10:40:45;;;;;;;19.55;9.20;;;;;;;;;;6161645;23;20176;-90
2024/03/15 10:43:52;;;;;;;16.13;8.13;;;;;;;;;;6161835;23;20219;-89
2024/03/15 10:47:01;;;;;;;14.48;8.10;;;;;;;;;;6161701;23;20183;-89
2024/03/15 10:50:06;;;;;;;16.73;8.70;;;;;;;;;;6161839;23;20180;-89
2024/03/15 10:53:11;;;;;;;15.32;8.18;;;;;;;;;;6161873;23;20241;-89
2024/03/15 10:56:17;;;;;;;13.35;7.47;;;;;;;;;;6161817;23;20211;-89
2024/03/15 10:59:22;;;;;;;16.33;8.18;;;;;;;;;;6163412;23;20171;-89
2024/03/15 11:05:49;;;;;;;13.32;7.35;;;;;;;;;;6183178;23;20216;-89
2024/03/15 11:08:54;;;;;;;12.82;6.65;;;;;;;;;;6163608;23;20176;-89
2024/03/15 11:12:02;;;;;;;12.60;7.07;;;;;;;;;;6163665;23;20180;-91
2024/03/15 11:15:09;;;;;;;16.23;7.10;;;;;;;;;;6180662;23;20172;-89
2024/03/15 11:18:14;;;;;;;11.05;6.43;;;;;;;;;;6161051;23;20466;-91
2024/03/15 11:21:20;;;;;;;9.90;6.63;;;;;;;;;;6161237;23;20171;-92
2024/03/15 11:24:28;;;;;;;11.27;6.40;;;;;;;;;;6162272;23;20284;-91
2024/03/15 11:27:33;;;;;;;9.98;6.38;;;;;;;;;;6162898;23;20267;-90
2024/03/15 11:30:38;;;;;;;16.80;7.93;;;;;;;;;;6162686;23;20176;-90
2024/03/15 11:33:43;;;;;;;9.20;6.18;;;;;;;;;;6164230;23;20215;-91
2024/03/15 11:36:51;;;;;;;11.38;6.05;;;;;;;;;;6161234;23;20511;-89
2024/03/15 11:39:58;;;;;;;8.48;5.75;;;;;;;;;;6161311;23;20497;-90
2024/03/15 11:43:04;;;;;;;11.05;5.72;;;;;;;;;;6164682;23;20247;-90
2024/03/15 11:46:10;;;;;;;12.18;7.30;;;;;;;;;;6163605;23;20235;-89
2024/03/15 11:49:15;;;;;;;12.15;5.68;;;;;;;;;;6161141;23;20167;-90
2024/03/15 11:52:20;;;;;;;8.10;5.68;;;;;;;;;;6163746;23;20168;-90
2024/03/15 11:55:26;;;;;;;8.77;5.90;;;;;;;;;;6165391;23;20623;-89
2024/03/15 11:58:31;;;;;;;8.80;5.00;;;;;;;;;;6163783;23;20175;-89
2024/03/15 12:01:36;;;;;;;14.55;5.93;;;;;;;;;;6164813;23;20163;-90
2024/03/15 12:04:42;;;;;;;13.18;5.57;;;;;;;;;;6162283;23;20172;-90
2024/03/15 12:07:48;;;;;;;11.13;5.85;;;;;;;;;;6163972;23;20282;-90
2024/03/15 12:10:55;;;;;;;12.30;6.45;;;;;;;;;;6163229;23;20167;-90
2024/03/15 12:14:01;;;;;;;8.77;5.97;;;;;;;;;;6163323;23;20183;-89
2024/03/15 12:17:07;;;;;;;14.27;7.40;;;;;;;;;;6162201;23;20172;-90
2024/03/15 12:20:12;;;;;;;11.45;6.25;;;;;;;;;;6162111;23;20247;-90
2024/03/15 12:23:17;;;;;;;12.18;6.65;;;;;;;;;;6178063;23;20607;-90
2024/03/15 12:26:23;;;;;;;10.55;6.88;;;;;;;;;;6161974;23;20419;-91
2024/03/15 12:29:29;;;;;;;11.70;6.63;;;;;;;;;;6159002;23;20254;-90
2024/03/15 12:32:34;;;;;;;10.73;6.05;;;;;;;;;;6159624;23;20180;-91
2024/03/15 12:35:40;;;;;;;13.05;6.20;;;;;;;;;;6164498;23;20168;-89
2024/03/15 12:38:45;;;;;;;14.40;6.63;;;;;;;;;;6161952;23;20249;-89
2024/03/15 12:41:54;;;;;;;14.55;7.05;;;;;;;;;;6160896;23;20176;-89
2024/03/15 12:44:59;;;;;;;10.50;6.07;;;;;;;;;;6163775;23;20189;-91
2024/03/15 12:48:05;;;;;;;11.80;6.00;;;;;;;;;;6161870;23;20284;-89
2024/03/15 12:51:10;;;;;;;12.05;5.80;;;;;;;;;;6162023;23;20175;-89
2024/03/15 12:54:15;;;;;;;12.55;5.78;;;;;;;;;;6159904;23;20168;-89
2024/03/15 12:57:20;;;;;;;13.13;6.20;;;;;;;;;;6161465;23;20168;-89
2024/03/15 13:00:28;;;;;;;9.73;5.60;;;;;;;;;;6162137;23;20176;-90
2024/03/15 13:03:34;;;;;;;10.35;5.85;;;;;;;;;;6161179;23;20695;-88
2024/03/15 13:06:41;;;;;;;14.05;5.88;;;;;;;;;;6163031;23;20242;-88
2024/03/15 13:09:46;;;;;;;9.35;5.22;;;;;;;;;;6162418;23;20269;-90
2024/03/15 13:12:56;;;;;;;11.10;5.22;;;;;;;;;;6137144;23;20202;-89
2024/03/15 13:16:01;;;;;;;11.68;4.97;;;;;;;;;;6161137;23;20255;-90
2024/03/15 13:19:06;;;;;;;16.83;6.00;;;;;;;;;;6160741;23;20211;-88
2024/03/15 13:22:11;;;;;;;11.73;5.38;;;;;;;;;;6159069;23;20187;-88
2024/03/15 13:25:17;;;;;;;8.43;4.70;;;;;;;;;;6160716;23;20234;-88
2024/03/15 13:28:22;;;;;;;10.98;4.80;;;;;;;;;;6161853;23;20215;-88
2024/03/15 13:31:27;;;;;;;11.95;5.25;;;;;;;;;;6145138;23;20279;-89
2024/03/15 13:34:34;;;;;;;10.52;5.40;;;;;;;;;;6161812;23;20171;-89
2024/03/15 13:37:50;;;;;;;10.13;4.10;;;;;;;;;;6163903;23;20180;-90
2024/03/15 13:40:57;;;;;;;9.68;5.43;;;;;;;;;;6162485;23;20176;-90
2024/03/15 13:44:03;;;;;;;8.18;4.82;;;;;;;;;;6162841;23;20152;-89
2024/03/15 13:47:08;;;;;;;9.88;5.22;;;;;;;;;;6161453;23;20195;-89
2024/03/15 13:50:15;;;;;;;12.10;5.65;;;;;;;;;;6160025;23;20176;-89
2024/03/15 13:53:21;;;;;;;8.88;4.90;;;;;;;;;;6159945;23;20175;-90
2024/03/15 13:56:26;;;;;;;14.63;5.15;;;;;;;;;;6158077;23;20236;-90
2024/03/15 13:59:30;;;;;;;8.95;5.00;;;;;;;;;;6159345;23;20172;-89
2024/03/15 14:02:36;;;;;;;9.15;5.18;;;;;;;;;;6160851;23;20191;-90
2024/03/15 14:05:41;;;;;;;10.70;4.95;;;;;;;;;;6161396;23;20292;-88
2024/03/15 14:08:48;;;;;;;10.20;6.00;;;;;;;;;;6159425;23;20227;-89
2024/03/15 14:11:55;;;;;;;8.50;5.05;;;;;;;;;;6161186;23;20175;-89
2024/03/15 14:15:00;;;;;;;10.90;5.90;;;;;;;;;;6158059;23;20326;-89
2024/03/15 14:18:07;;;;;;;16.23;6.50;;;;;;;;;;6177928;23;20167;-89
2024/03/15 14:21:13;;;;;;;12.25;6.43;;;;;;;;;;6159847;23;20183;-90
2024/03/15 14:24:21;;;;;;;10.95;5.80;;;;;;;;;;6162106;23;20164;-91
2024/03/15 14:27:27;;;;;;;9.45;5.43;;;;;;;;;;6159926;23;20265;-88
2024/03/15 14:30:33;;;;;;;13.05;6.68;;;;;;;;;;6178413;23;20214;-90
2024/03/15 14:33:38;;;;;;;8.82;5.53;;;;;;;;;;6162653;23;20164;-88
2024/03/15 14:36:44;;;;;;;10.27;5.82;;;;;;;;;;6161288;23;20180;-89
2024/03/15 14:39:49;;;;;;;15.02;6.68;;;;;;;;;;6162892;23;20245;-89
2024/03/15 14:42:55;;;;;;;13.30;6.22;;;;;;;;;;6163296;23;20171;-89
2024/03/15 14:46:00;;;;;;;14.73;5.68;;;;;;;;;;6161277;23;20199;-89
2024/03/15 14:49:06;;;;;;;12.43;5.68;;;;;;;;;;6163948;23;20204;-89
2024/03/15 14:52:12;;;;;;;11.82;5.88;;;;;;;;;;6162833;23;20167;-89
2024/03/15 14:55:18;;;;;;;10.30;5.70;;;;;;;;;;6164531;23;20224;-90
2024/03/15 14:58:23;;;;;;;12.20;6.10;;;;;;;;;;6163219;23;20659;-89
2024/03/15 15:01:28;;;;;;;10.25;5.32;;;;;;;;;;6163825;23;20168;-91
2024/03/15 15:04:34;;;;;;;8.73;5.40;;;;;;;;;;6165727;23;20164;-90
2024/03/15 15:07:40;;;;;;;9.52;5.20;;;;;;;;;;6162176;23;20215;-89
2024/03/15 15:10:45;;;;;;;8.20;5.18;;;;;;;;;;6162849;23;20163;-90
2024/03/15 15:13:52;;;;;;;9.68;5.18;;;;;;;;;;6161705;23;20167;-89
2024/03/15 15:16:56;;;;;;;11.00;5.13;;;;;;;;;;6161371;23;20172;-90
2024/03/15 15:20:08;;;;;;;10.73;5.15;;;;;;;;;;6160407;23;20164;-90
2024/03/15 15:23:13;;;;;;;30.33;21.00;;;;;;;;;;6162755;23;20171;-89
2024/03/15 15:26:20;;;;;;;13.55;8.20;;;;;;;;;;6161558;23;20311;-90
2024/03/15 15:29:27;;;;;;;11.23;5.50;;;;;;;;;;6163451;23;20229;-89
2024/03/15 15:32:33;;;;;;;12.23;6.40;;;;;;;;;;6164343;23;20172;-89
2024/03/15 15:35:38;;;;;;;7.95;4.63;;;;;;;;;;6164127;23;20164;-90
2024/03/15 15:38:44;;;;;;;10.00;4.75;;;;;;;;;;6163860;23;20183;-90
2024/03/15 15:41:49;;;;;;;9.90;5.15;;;;;;;;;;6162831;23;20156;-89
2024/03/15 15:44:54;;;;;;;8.60;4.55;;;;;;;;;;6165573;23;20260;-91
2024/03/15 15:47:59;;;;;;;8.02;5.15;;;;;;;;;;6163413;23;20192;-88
2024/03/15 15:51:07;;;;;;;5.50;4.13;;;;;;;;;;6161654;23;20171;-89
2024/03/15 15:54:12;;;;;;;7.03;3.78;;;;;;;;;;6163107;23;20172;-90
2024/03/15 15:57:21;;;;;;;10.70;4.07;;;;;;;;;;6164253;23;20171;-89
2024/03/15 16:00:29;;;;;;;9.75;3.40;;;;;;;;;;6163886;23;20291;-90
2024/03/15 16:03:37;;;;;;;7.10;4.38;;;;;;;;;;6163971;23;20174;-89
2024/03/15 16:06:54;;;;;;;5.25;2.97;;;;;;;;;;6160713;23;20263;-89
2024/03/15 16:09:59;;;;;;;6.72;2.50;;;;;;;;;;6162713;23;20508;-90
2024/03/15 16:13:04;;;;;;;7.53;2.42;;;;;;;;;;6161607;23;20648;-89
2024/03/15 16:16:10;;;;;;;8.30;3.17;;;;;;;;;;6161071;23;20163;-90
2024/03/15 16:19:15;;;;;;;8.07;2.83;;;;;;;;;;6165214;23;20172;-90
2024/03/15 16:22:27;;;;;;;6.40;2.60;;;;;;;;;;6160741;23;20172;-88
2024/03/15 16:25:32;;;;;;;6.82;2.65;;;;;;;;;;6161511;23;20187;-89
2024/03/15 16:28:37;;;;;;;8.18;2.80;;;;;;;;;;6164654;23;20171;-90
2024/03/15 16:31:43;;;;;;;7.20;2.97;;;;;;;;;;6161441;23;20241;-88
2024/03/15 16:34:48;;;;;;;3.75;2.28;;;;;;;;;;6161367;23;20191;-89
2024/03/15 16:37:54;;;;;;;12.32;3.33;;;;;;;;;;6159971;23;20211;-89
2024/03/15 16:40:59;;;;;;;7.20;2.72;;;;;;;;;;6161836;23;20223;-88
2024/03/15 16:44:05;;;;;;;5.43;2.60;;;;;;;;;;6161808;23;20239;-90
2024/03/15 16:47:10;;;;;;;7.47;2.78;;;;;;;;;;6164438;23;20192;-89
2024/03/15 16:50:16;;;;;;;6.45;3.00;;;;;;;;;;6164760;23;20184;-88
2024/03/15 16:53:22;;;;;;;7.93;3.28;;;;;;;;;;6166860;23;20176;-89
2024/03/15 16:56:27;;;;;;;10.75;3.83;;;;;;;;;;6161649;23;20171;-88
2024/03/15 16:59:33;;;;;;;10.10;4.30;;;;;;;;;;6160537;23;20287;-90
2024/03/15 17:02:38;;;;;;;12.63;4.68;;;;;;;;;;6160863;23;20250;-89
2024/03/15 17:05:46;;;;;;;13.93;4.45;;;;;;;;;;6164165;23;20172;-90
2024/03/15 17:08:54;;;;;;;8.93;3.88;;;;;;;;;;6164080;23;20175;-89
2024/03/15 17:12:00;;;;;;;9.18;3.40;;;;;;;;;;6162996;23;20231;-89
2024/03/15 17:15:07;;;;;;;9.93;3.58;;;;;;;;;;6163249;23;20798;-89
2024/03/15 17:18:16;;;;;;;12.38;5.15;;;;;;;;;;6163506;23;20176;-88
2024/03/15 17:21:21;;;;;;;26.70;10.23;;;;;;;;;;6163524;23;20172;-90
2024/03/15 17:24:27;;;;;;;6.43;2.80;;;;;;;;;;6163545;23;20172;-89
2024/03/15 17:27:34;;;;;;;7.47;2.85;;;;;;;;;;6162804;23;20279;-90
2024/03/15 17:30:39;;;;;;;7.43;2.65;;;;;;;;;;6163074;23;20176;-89
2024/03/15 17:33:49;;;;;;;5.72;2.97;;;;;;;;;;6164515;23;20204;-89
2024/03/15 17:36:55;;;;;;;6.90;2.13;;;;;;;;;;6163131;23;20163;-88
2024/03/15 17:40:01;;;;;;;3.65;1.75;;;;;;;;;;6164341;23;20168;-89
2024/03/15 17:43:07;;;;;;;3.67;2.17;;;;;;;;;;6160027;23;20631;-88
2024/03/15 17:46:12;;;;;;;12.48;2.03;;;;;;;;;;6164006;23;20172;-89
2024/03/15 17:49:17;;;;;;;7.20;2.40;;;;;;;;;;6178682;23;20503;-89
2024/03/15 17:52:23;;;;;;;7.85;2.38;;;;;;;;;;6160780;23;20244;-90
2024/03/15 17:55:29;;;;;;;4.20;1.90;;;;;;;;;;6163689;23;20175;-90
2024/03/15 17:58:35;;;;;;;4.05;2.30;;;;;;;;;;6161149;23;20172;-88
2024/03/15 18:01:42;;;;;;;10.07;3.00;;;;;;;;;;6179880;23;20164;-90
2024/03/15 18:04:47;;;;;;;5.55;2.33;;;;;;;;;;6163970;23;20191;-89
2024/03/15 18:07:52;;;;;;;6.60;3.08;;;;;;;;;;6163728;23;20215;-90
2024/03/15 18:10:58;;;;;;;6.55;2.60;;;;;;;;;;6163139;23;20180;-89
2024/03/15 18:14:03;;;;;;;10.93;4.95;;;;;;;;;;6178511;23;20238;-89
2024/03/15 18:17:08;;;;;;;7.55;2.80;;;;;;;;;;6162999;23;20172;-91
2024/03/15 18:20:13;;;;;;;11.40;3.00;;;;;;;;;;6162601;23;20164;-90
2024/03/15 18:23:19;;;;;;;10.18;4.03;;;;;;;;;;6161940;23;20167;-89